createdAt,value
2018-10-11T00:01:00.888Z,43.23
2018-10-11T00:04:07.910Z,47.77
2018-10-11T00:07:13.982Z,48.47
2018-10-11T00:10:22.258Z,38.43
2018-10-11T00:13:29.404Z,42.37
2018-10-11T00:16:36.414Z,41.77
2018-10-11T00:19:43.628Z,39.63
2018-10-11T00:22:50.849Z,38.47
2018-10-11T00:25:57.855Z,35.47
2018-10-11T00:29:05.076Z,33.40
2018-10-11T00:32:12.236Z,33.10
2018-10-11T00:35:19.496Z,33.03
2018-10-11T00:38:26.712Z,36.77
2018-10-11T00:41:33.856Z,29.57
2018-10-11T00:44:40.881Z,32.93
2018-10-11T00:47:47.961Z,36.13
2018-10-11T00:50:54.232Z,44.23
2018-10-11T00:54:01.410Z,49.63
2018-10-11T00:57:08.507Z,53.67
2018-10-11T01:00:15.713Z,55.50
2018-10-11T01:03:23.079Z,55.70
2018-10-11T01:06:30.956Z,61.03
2018-10-11T01:09:38.023Z,65.30
2018-10-11T01:12:45.300Z,54.70
2018-10-11T01:15:52.573Z,51.37
2018-10-11T01:18:59.620Z,52.60
2018-10-11T01:22:05.999Z,50.37
2018-10-11T01:25:13.171Z,45.03
2018-10-11T01:28:20.496Z,53.70
2018-10-11T01:31:28.903Z,52.67
2018-10-11T01:34:35.184Z,52.40
2018-10-11T01:37:42.436Z,51.17
2018-10-11T01:40:49.563Z,46.40
2018-10-11T01:43:56.852Z,47.27
2018-10-11T01:47:04.108Z,51.53
2018-10-11T01:50:11.334Z,53.38
2018-10-11T01:53:18.490Z,50.80
2018-10-11T01:56:25.888Z,47.53
2018-10-11T01:59:33.227Z,45.23
2018-10-11T02:02:40.614Z,48.07
2018-10-11T02:05:48.503Z,45.17
2018-10-11T02:08:55.784Z,40.70
2018-10-11T02:12:02.805Z,40.50
2018-10-11T02:15:09.930Z,46.37
2018-10-11T02:18:16.855Z,39.20
2018-10-11T02:21:24.851Z,45.63
2018-10-11T02:24:31.453Z,45.73
2018-10-11T02:27:38.511Z,44.00
2018-10-11T02:30:45.529Z,40.73
2018-10-11T02:33:52.686Z,44.63
2018-10-11T02:36:59.858Z,42.77
2018-10-11T02:40:07.052Z,47.70
2018-10-11T02:43:13.402Z,46.80
2018-10-11T02:46:20.404Z,41.13
2018-10-11T02:49:27.624Z,43.27
2018-10-11T02:52:34.836Z,42.03
2018-10-11T02:55:44.064Z,36.87
2018-10-11T02:59:03.323Z,34.73
2018-10-11T03:02:11.615Z,37.03
2018-10-11T03:05:18.728Z,36.60
2018-10-11T03:08:35.160Z,41.93
2018-10-11T03:11:42.314Z,34.50
2018-10-11T03:14:49.582Z,34.63
2018-10-11T03:17:56.903Z,33.57
2018-10-11T03:21:03.885Z,31.60
2018-10-11T03:24:11.104Z,34.40
2018-10-11T03:27:19.105Z,33.33
2018-10-11T03:30:26.391Z,38.13
2018-10-11T03:33:32.890Z,35.60
2018-10-11T03:36:40.132Z,37.00
2018-10-11T03:39:46.709Z,40.27
2018-10-11T03:42:53.945Z,40.03
2018-10-11T03:46:01.069Z,36.20
2018-10-11T03:49:08.188Z,38.80
2018-10-11T03:52:15.462Z,38.93
2018-10-11T03:55:22.569Z,36.10
2018-10-11T03:58:28.792Z,37.73
2018-10-11T04:01:35.956Z,38.67
2018-10-11T04:04:42.999Z,39.87
2018-10-11T04:07:50.192Z,34.13
2018-10-11T04:10:56.742Z,30.43
2018-10-11T04:14:04.961Z,32.03
2018-10-11T04:17:12.324Z,29.97
2018-10-11T04:20:19.410Z,29.23
2018-10-11T04:23:36.031Z,30.90
2018-10-11T04:26:43.235Z,33.33
2018-10-11T04:29:49.506Z,38.23
2018-10-11T04:32:56.712Z,38.17
2018-10-11T04:36:04.878Z,44.03
2018-10-11T04:39:11.898Z,42.17
2018-10-11T04:42:19.419Z,45.20
2018-10-11T04:45:27.239Z,39.23
2018-10-11T04:48:34.433Z,36.63
2018-10-11T04:51:41.653Z,38.10
2018-10-11T04:54:48.657Z,36.30
2018-10-11T04:57:55.772Z,38.33
2018-10-11T05:01:02.925Z,34.47
2018-10-11T05:04:10.343Z,45.43
2018-10-11T05:07:17.405Z,49.37
2018-10-11T05:10:24.477Z,64.67
2018-10-11T05:13:31.659Z,46.60
2018-10-11T05:16:38.859Z,62.27
2018-10-11T05:19:47.192Z,70.53
2018-10-11T05:22:53.554Z,48.67
2018-10-11T05:26:00.312Z,51.70
2018-10-11T05:29:06.910Z,51.53
2018-10-11T05:32:14.247Z,56.73
2018-10-11T05:35:21.206Z,53.97
2018-10-11T05:38:27.322Z,61.80
2018-10-11T05:41:34.404Z,48.17
2018-10-11T05:44:40.412Z,50.37
2018-10-11T05:47:48.629Z,45.63
2018-10-11T05:50:54.863Z,54.70
2018-10-11T05:54:03.013Z,66.00
2018-10-11T05:57:09.224Z,74.27
2018-10-11T06:00:16.474Z,74.30
2018-10-11T06:03:23.518Z,76.00
2018-10-11T06:06:30.690Z,69.37
2018-10-11T06:09:37.106Z,68.00
2018-10-11T06:12:44.098Z,58.87
2018-10-11T06:15:51.374Z,50.57
2018-10-11T06:18:58.472Z,51.27
2018-10-11T06:22:05.674Z,53.50
2018-10-11T06:25:12.807Z,50.53
2018-10-11T06:28:20.069Z,51.53
2018-10-11T06:31:27.218Z,50.27
2018-10-11T06:34:34.450Z,47.37
2018-10-11T06:37:41.562Z,47.20
2018-10-11T06:40:48.676Z,39.97
2018-10-11T06:43:55.704Z,42.37
2018-10-11T06:47:02.833Z,39.90
2018-10-11T06:50:09.700Z,35.07
2018-10-11T06:53:16.676Z,38.33
2018-10-11T06:56:23.645Z,39.53
2018-10-11T06:59:32.029Z,44.57
2018-10-11T07:02:41.473Z,45.43
2018-10-11T07:05:50.377Z,39.77
2018-10-11T07:08:58.199Z,37.60
2018-10-11T07:12:05.027Z,32.67
2018-10-11T07:15:12.138Z,27.40
2018-10-11T07:18:19.412Z,24.73
2018-10-11T07:21:26.521Z,22.10
2018-10-11T07:24:33.717Z,23.80
2018-10-11T07:27:40.797Z,28.57
2018-10-11T07:30:48.283Z,18.47
2018-10-11T07:33:55.168Z,21.30
2018-10-11T07:37:02.492Z,20.27
2018-10-11T07:40:09.835Z,25.23
2018-10-11T07:43:16.837Z,31.90
2018-10-11T07:46:23.933Z,22.83
2018-10-11T07:49:31.128Z,23.63
2018-10-11T07:52:38.265Z,19.30
2018-10-11T07:55:44.685Z,22.57
2018-10-11T07:58:51.896Z,25.77
2018-10-11T08:01:58.803Z,19.27
2018-10-11T08:05:06.017Z,23.13
2018-10-11T08:08:13.021Z,20.20
2018-10-11T08:11:20.485Z,26.30
2018-10-11T08:14:27.522Z,24.70
2018-10-11T08:17:36.031Z,21.77
2018-10-11T08:20:42.876Z,20.37
2018-10-11T08:23:51.764Z,23.23
2018-10-11T08:27:00.609Z,23.20
2018-10-11T08:30:08.545Z,33.87
2018-10-11T08:33:16.518Z,23.43
2018-10-11T08:36:22.987Z,19.23
2018-10-11T08:39:30.977Z,20.07
2018-10-11T08:42:39.134Z,29.17
2018-10-11T08:45:47.804Z,17.97
2018-10-11T08:48:55.915Z,13.80
2018-10-11T08:52:03.149Z,15.17
2018-10-11T08:55:10.441Z,14.70
2018-10-11T08:58:17.625Z,16.23
2018-10-11T09:01:24.763Z,17.30
2018-10-11T09:04:33.102Z,19.70
2018-10-11T09:07:40.170Z,24.00
2018-10-11T09:10:47.217Z,21.33
2018-10-11T09:13:55.474Z,18.87
2018-10-11T09:17:03.636Z,17.37
2018-10-11T09:20:11.738Z,18.03
2018-10-11T09:23:19.185Z,18.57
2018-10-11T09:26:26.450Z,25.37
2018-10-11T09:29:34.574Z,16.47
2018-10-11T09:32:43.179Z,15.30
2018-10-11T09:35:51.112Z,20.03
2018-10-11T09:38:58.920Z,22.60
2018-10-11T09:42:05.931Z,24.03
2018-10-11T09:45:13.112Z,18.10
2018-10-11T09:48:20.483Z,18.97
2018-10-11T09:51:26.746Z,15.57
2018-10-11T09:54:34.122Z,19.77
2018-10-11T09:57:43.378Z,18.47
2018-10-11T10:00:56.502Z,14.13
2018-10-11T10:04:03.596Z,19.27
2018-10-11T10:07:10.904Z,18.87
2018-10-11T10:10:17.984Z,7.70
2018-10-11T10:13:24.342Z,8.47
2018-10-11T10:16:32.609Z,22.50
2018-10-11T10:19:39.753Z,15.40
2018-10-11T10:22:46.640Z,15.00
2018-10-11T10:25:53.608Z,12.90
2018-10-11T10:29:00.723Z,12.10
2018-10-11T10:32:08.999Z,13.53
2018-10-11T10:35:16.127Z,13.70
2018-10-11T10:38:23.319Z,17.27
2018-10-11T10:41:30.433Z,15.70
2018-10-11T10:44:37.814Z,13.53
2018-10-11T10:47:45.263Z,13.87
2018-10-11T10:50:52.677Z,15.97
2018-10-11T10:53:59.718Z,13.40
2018-10-11T10:57:08.075Z,14.70
2018-10-11T11:00:15.019Z,14.90
2018-10-11T11:03:22.005Z,12.83
2018-10-11T11:06:29.000Z,11.10
2018-10-11T11:09:36.129Z,12.47
2018-10-11T11:12:42.563Z,17.50
2018-10-11T11:15:49.606Z,12.77
2018-10-11T11:18:56.896Z,12.13
2018-10-11T11:22:04.118Z,15.23
2018-10-11T11:25:10.972Z,11.33
2018-10-11T11:28:18.076Z,11.37
2018-10-11T11:31:25.281Z,11.53
2018-10-11T11:34:32.399Z,13.73
2018-10-11T11:37:39.620Z,18.10
2018-10-11T11:40:45.949Z,9.90
2018-10-11T11:43:52.066Z,11.83
2018-10-11T11:46:59.168Z,12.13
2018-10-11T11:50:06.232Z,12.97
2018-10-11T11:53:13.547Z,11.13
2018-10-11T11:56:20.843Z,11.03
2018-10-11T11:59:28.531Z,12.73
2018-10-11T12:02:54.138Z,14.77
2018-10-11T12:06:01.130Z,18.47
2018-10-11T12:09:08.355Z,9.70
2018-10-11T12:12:14.580Z,12.03
2018-10-11T12:15:21.696Z,10.07
2018-10-11T12:18:28.917Z,15.70
2018-10-11T12:21:35.536Z,20.53
2018-10-11T12:24:42.886Z,10.87
2018-10-11T12:27:50.956Z,11.43
2018-10-11T12:30:58.257Z,12.37
2018-10-11T12:34:05.489Z,13.10
2018-10-11T12:37:12.461Z,12.33
2018-10-11T12:40:19.631Z,20.00
2018-10-11T12:43:26.761Z,12.30
2018-10-11T12:46:36.232Z,12.37
2018-10-11T12:49:45.361Z,12.77
2018-10-11T12:52:49.147Z,13.23
2018-10-11T12:55:56.126Z,11.13
2018-10-11T12:59:03.429Z,10.10
2018-10-11T13:02:10.465Z,11.57
2018-10-11T13:05:17.657Z,12.57
2018-10-11T13:08:23.932Z,11.23
2018-10-11T13:11:31.056Z,15.53
2018-10-11T13:14:37.972Z,10.97
2018-10-11T13:17:50.152Z,13.13
2018-10-11T13:20:57.281Z,13.53
2018-10-11T13:24:03.662Z,14.23
2018-10-11T13:27:10.557Z,10.83
2018-10-11T13:30:17.736Z,13.77
2018-10-11T13:33:24.685Z,16.07
2018-10-11T13:36:32.177Z,13.00
2018-10-11T13:39:39.647Z,13.57
2018-10-11T13:42:46.511Z,11.47
2018-10-11T13:45:56.976Z,13.87
2018-10-11T13:49:00.949Z,12.97
2018-10-11T13:52:08.173Z,14.33
2018-10-11T13:55:15.799Z,14.00
2018-10-11T13:58:22.287Z,11.80
2018-10-11T14:01:29.659Z,14.73
2018-10-11T14:04:36.927Z,12.83
2018-10-11T14:07:43.056Z,11.00
2018-10-11T14:10:50.268Z,13.47
2018-10-11T14:13:57.427Z,14.57
2018-10-11T14:17:04.545Z,8.90
2018-10-11T14:20:10.978Z,10.33
2018-10-11T14:23:18.237Z,16.67
2018-10-11T14:26:25.378Z,13.97
2018-10-11T14:29:31.784Z,8.70
2018-10-11T14:32:38.295Z,9.63
2018-10-11T14:35:45.632Z,11.60
2018-10-11T14:38:52.796Z,9.70
2018-10-11T14:41:59.820Z,12.00
2018-10-11T14:45:07.108Z,21.33
2018-10-11T14:48:14.356Z,10.83
2018-10-11T14:51:22.479Z,16.43
2018-10-11T14:54:29.679Z,14.70
2018-10-11T14:57:35.936Z,17.30
2018-10-11T15:00:42.991Z,13.37
2018-10-11T15:03:49.968Z,13.20
2018-10-11T15:06:57.966Z,13.90
2018-10-11T15:10:04.997Z,11.10
2018-10-11T15:13:12.321Z,44.23
2018-10-11T15:16:19.426Z,13.97
2018-10-11T15:19:26.573Z,18.97
2018-10-11T15:22:33.732Z,13.10
2018-10-11T15:25:41.035Z,17.40
2018-10-11T15:28:48.177Z,14.97
2018-10-11T15:31:54.443Z,13.17
2018-10-11T15:35:01.780Z,15.63
2018-10-11T15:38:08.710Z,17.63
2018-10-11T15:41:15.999Z,11.07
2018-10-11T15:44:23.185Z,11.77
2018-10-11T15:47:30.200Z,27.60
2018-10-11T15:50:38.166Z,18.87
2018-10-11T15:53:45.463Z,14.67
2018-10-11T15:56:52.544Z,14.10
2018-10-11T16:00:00.642Z,10.77
2018-10-11T16:03:07.911Z,11.07
2018-10-11T16:06:15.207Z,10.97
2018-10-11T16:09:23.598Z,10.07
2018-10-11T16:12:30.734Z,13.00
2018-10-11T16:15:37.965Z,12.00
2018-10-11T16:18:44.415Z,11.23
2018-10-11T16:21:50.851Z,14.70
2018-10-11T16:24:58.056Z,24.23
2018-10-11T16:28:04.863Z,13.47
2018-10-11T16:31:11.925Z,14.10
2018-10-11T16:34:18.866Z,10.73
2018-10-11T16:37:25.826Z,8.17
2018-10-11T16:40:32.795Z,11.73
2018-10-11T16:43:39.952Z,10.60
2018-10-11T16:46:47.127Z,12.70
2018-10-11T16:49:54.561Z,16.87
2018-10-11T16:53:01.658Z,10.37
2018-10-11T16:56:08.819Z,14.83
2018-10-11T16:59:16.008Z,20.17
2018-10-11T17:02:23.157Z,15.07
2018-10-11T17:05:30.464Z,14.80
2018-10-11T17:08:37.522Z,14.10
2018-10-11T17:11:44.152Z,12.13
2018-10-11T17:14:51.417Z,8.63
2018-10-11T17:17:57.693Z,11.40
2018-10-11T17:21:04.672Z,11.13
2018-10-11T17:24:10.812Z,14.33
2018-10-11T17:27:17.935Z,13.27
2018-10-11T17:30:24.942Z,10.83
2018-10-11T17:33:31.978Z,12.07
2018-10-11T17:36:38.554Z,11.33
2018-10-11T17:39:45.610Z,8.57
2018-10-11T17:42:53.056Z,14.73
2018-10-11T17:46:00.053Z,9.37
2018-10-11T17:49:06.976Z,17.77
2018-10-11T17:52:14.401Z,20.07
2018-10-11T17:55:21.265Z,14.07
2018-10-11T17:58:28.392Z,14.27
2018-10-11T18:01:34.648Z,10.40
2018-10-11T18:04:42.024Z,26.33
2018-10-11T18:07:49.201Z,12.50
2018-10-11T18:10:55.823Z,12.33
2018-10-11T18:14:02.889Z,12.77
2018-10-11T18:17:10.184Z,15.83
2018-10-11T18:20:17.549Z,11.27
2018-10-11T18:23:24.579Z,14.10
2018-10-11T18:26:31.924Z,14.53
2018-10-11T18:29:38.970Z,15.60
2018-10-11T18:32:45.922Z,13.07
2018-10-11T18:35:53.100Z,10.77
2018-10-11T18:38:59.273Z,14.47
2018-10-11T18:42:06.184Z,10.77
2018-10-11T18:45:12.453Z,16.97
2018-10-11T18:48:18.806Z,13.23
2018-10-11T18:51:25.784Z,11.67
2018-10-11T18:54:32.896Z,10.77
2018-10-11T18:57:40.051Z,14.33
2018-10-11T19:00:48.168Z,14.40
2018-10-11T19:03:54.543Z,10.30
2018-10-11T19:07:01.708Z,13.90
2018-10-11T19:10:08.996Z,10.97
2018-10-11T19:13:17.229Z,12.50
2018-10-11T19:16:24.620Z,13.03
2018-10-11T19:19:31.999Z,15.07
2018-10-11T19:22:38.713Z,12.73
2018-10-11T19:25:45.976Z,13.53
2018-10-11T19:28:53.140Z,16.53
2018-10-11T19:32:00.239Z,12.07
2018-10-11T19:35:07.433Z,13.63
2018-10-11T19:38:13.688Z,13.77
2018-10-11T19:41:20.222Z,13.20
2018-10-11T19:44:26.734Z,12.53
2018-10-11T19:47:33.836Z,12.37
2018-10-11T19:50:41.012Z,11.63
2018-10-11T19:53:48.123Z,12.30
2018-10-11T19:56:55.462Z,12.47
2018-10-11T20:00:01.834Z,10.27
2018-10-11T20:03:08.771Z,13.83
2018-10-11T20:06:15.796Z,16.30
2018-10-11T20:09:22.974Z,14.43
2018-10-11T20:12:30.119Z,13.50
2018-10-11T20:15:37.598Z,11.97
2018-10-11T20:18:45.520Z,10.80
2018-10-11T20:21:52.863Z,11.63
2018-10-11T20:25:00.041Z,12.73
2018-10-11T20:28:07.233Z,9.33
2018-10-11T20:31:14.127Z,11.33
2018-10-11T20:34:21.315Z,11.43
2018-10-11T20:37:28.651Z,10.97
2018-10-11T20:40:35.656Z,12.20
2018-10-11T20:43:42.931Z,12.23
2018-10-11T20:46:51.026Z,9.30
2018-10-11T20:49:59.344Z,9.80
2018-10-11T20:53:06.235Z,10.63
2018-10-11T20:56:12.306Z,13.25
2018-10-11T20:59:20.621Z,11.53
2018-10-11T21:02:28.728Z,12.50
2018-10-11T21:05:37.816Z,9.03
2018-10-11T21:08:46.945Z,10.40
2018-10-11T21:11:55.047Z,9.17
2018-10-11T21:15:03.089Z,10.93
2018-10-11T21:18:10.060Z,10.33
2018-10-11T21:21:17.212Z,10.97
2018-10-11T21:24:25.220Z,12.70
2018-10-11T21:27:32.672Z,11.97
2018-10-11T21:30:39.875Z,9.63
2018-10-11T21:33:47.063Z,9.83
2018-10-11T21:36:54.139Z,12.77
2018-10-11T21:40:01.350Z,10.63
2018-10-11T21:43:08.582Z,10.57
2018-10-11T21:46:15.965Z,10.13
2018-10-11T21:49:22.940Z,8.67
2018-10-11T21:52:30.009Z,9.50
2018-10-11T21:55:37.068Z,9.83
2018-10-11T21:58:43.992Z,9.47
2018-10-11T22:01:51.698Z,7.93
2018-10-11T22:04:58.851Z,9.73
2018-10-11T22:08:07.372Z,9.37
2018-10-11T22:11:15.583Z,7.80
2018-10-11T22:14:23.990Z,10.23
2018-10-11T22:17:31.686Z,12.70
2018-10-11T22:20:40.169Z,7.90
2018-10-11T22:23:56.423Z,9.30
2018-10-11T22:27:06.457Z,7.57
2018-10-11T22:30:14.167Z,7.27
2018-10-11T22:33:21.553Z,9.03
2018-10-11T22:36:28.724Z,9.53
2018-10-11T22:39:35.302Z,8.63
2018-10-11T22:42:42.244Z,10.03
2018-10-11T22:45:49.579Z,8.40
2018-10-11T22:48:56.859Z,10.17
2018-10-11T22:52:03.946Z,15.03
2018-10-11T22:55:11.155Z,10.10
2018-10-11T22:58:18.210Z,10.27
2018-10-11T23:01:25.309Z,9.33
2018-10-11T23:04:32.111Z,10.80
2018-10-11T23:07:38.206Z,9.33
2018-10-11T23:10:44.935Z,10.67
2018-10-11T23:13:51.979Z,14.20
2018-10-11T23:16:58.949Z,9.90
2018-10-11T23:20:06.114Z,12.20
2018-10-11T23:23:13.324Z,16.63
2018-10-11T23:26:21.640Z,12.80
2018-10-11T23:29:28.755Z,15.87
2018-10-11T23:32:35.749Z,12.83
2018-10-11T23:35:43.029Z,13.63
2018-10-11T23:38:50.095Z,14.30
2018-10-11T23:41:57.278Z,12.43
2018-10-11T23:45:04.284Z,13.23
2018-10-11T23:48:11.823Z,10.77
2018-10-11T23:51:18.834Z,13.50
2018-10-11T23:54:26.064Z,11.47
2018-10-11T23:57:33.537Z,10.60
